Terminal Aerodrome Forecast
Issued by NWS

Home | Current Version | Previous Version | Text Only | Print | Product List | Glossary On
Versions: 1 2 3 4 5 6 7 8 9 10 11 12 13
669
FTUS46 KSGX 231129
TAFPSP
TAF
KPSP 231129Z 2312/2412 VRB05KT P6SM SKC
     FM232100 12009KT P6SM SCT100
     FM240200 VRB05KT P6SM SCT150=

USA.gov is the U.S. government's official web portal to all federal, state and local government web resources and services.